Weather reports worldwide

Advertisment
Siguenza, Spain (8150): temperature & dewpoint: 17.10.2020 01:00:00 - 23.10.2020 01:00:00 (CEST)Siguenza, Spain (8150): wind speed & gusts: 17.10.2020 01:00:00 - 23.10.2020 01:00:00 (CEST)Siguenza, Spain (8150): wind direction: 17.10.2020 01:00:00 - 23.10.2020 01:00:00 (CEST)Siguenza, Spain (8150): visibility: 17.10.2020 01:00:00 - 23.10.2020 01:00:00 (CEST)Siguenza, Spain (8150): sunshine duration: 17.10.2020 01:00:00 - 23.10.2020 01:00:00 (CEST)Siguenza, Spain (8150): precipitation: 17.10.2020 01:00:00 - 23.10.2020 01:00:00 (CEST)
Date & Time tt [°C] td [°C] ff [km/h] ff [kn] fx [km/h] fx [kn] dd vv [km] sd [min] rr [mm]
23.10.2020 01:00:00 11,0 9,0 11 6 26 14 SW 15 0 0,2
23.10.2020 00:00:00 11,5 8,7 15 8 29 16 SSW 20 0 0,0
22.10.2020 23:00:00 11,6 8,4 11 6 27 15 SSW 20 0 0,0
22.10.2020 22:00:00 12,1 8,8 12 6 27 15 SSW 20 0 0,0
22.10.2020 21:00:00 12,5 9,6 13 7 29 16 SSW 20 0 0,0
22.10.2020 20:00:00 12,7 9,6 5 3 16 9 SSW 20 0 -
22.10.2020 19:00:00 13,2 9,3 9 5 23 12 SSW 20 0 0,0
22.10.2020 18:00:00 13,3 9,2 12 7 26 14 SSW 20 0 0,0
22.10.2020 17:00:00 13,4 9,0 16 9 33 18 SSW 20 0 0,0
22.10.2020 16:00:00 13,9 9,7 16 9 37 20 S 20 0 0,0
22.10.2020 15:00:00 14,7 9,7 19 10 37 20 S 20 27 0,0
22.10.2020 14:00:00 14,1 10,3 13 7 31 17 S 20 2 -
22.10.2020 13:00:00 13,9 10,3 14 8 24 13 SSW 20 0 0,0
22.10.2020 12:00:00 12,9 10,0 8 5 21 11 S 20 0 0,0
22.10.2020 11:00:00 12,3 10,2 8 4 19 11 SSW 20 0 0,2
22.10.2020 10:00:00 11,6 9,8 5 3 19 11 S 20 0 0,0
22.10.2020 09:00:00 11,2 9,9 7 4 19 11 S 20 0 0,2
22.10.2020 08:00:00 11,0 9,9 4 2 20 11 SSW 20 0 -
22.10.2020 07:00:00 11,1 9,7 5 3 18 10 SSW 20 0 0,0
22.10.2020 06:00:00 11,1 9,3 6 3 16 9 SSW 20 0 0,6
22.10.2020 05:00:00 11,5 9,2 4 2 22 12 S 17 0 0,0
22.10.2020 04:00:00 11,5 9,0 10 5 28 15 SSW 20 0 0,0
22.10.2020 03:00:00 11,3 9,0 6 4 22 12 SSW 20 0 0,0
22.10.2020 02:00:00 9,3 8,3 4 2 8 4 NNE 20 0 -
22.10.2020 01:00:00 10,0 8,0 4 2 18 10 N 20 0 0,0
22.10.2020 00:00:00 10,7 8,4 1 1 13 7 NNW 20 0 0,0
21.10.2020 23:00:00 11,7 9,0 8 4 24 13 S 20 0 0,0
21.10.2020 22:00:00 11,8 9,7 5 3 22 12 SSW 20 0 0,0
21.10.2020 21:00:00 11,9 9,8 10 6 23 13 S 20 0 0,0
21.10.2020 20:00:00 12,4 9,6 10 5 18 10 S 20 0 -
21.10.2020 19:00:00 13,7 10,5 9 5 26 14 S 20 16 0,0
21.10.2020 18:00:00 13,6 10,0 16 9 29 16 SSW 20 9 0,0
21.10.2020 17:00:00 13,4 10,8 12 7 28 15 S 20 0 0,0
21.10.2020 16:00:00 12,9 10,6 16 9 31 17 SSW 20 0 0,4
21.10.2020 15:00:00 11,8 9,9 11 6 36 19 SW 10 4 1,2
21.10.2020 14:00:00 12,8 10,9 17 9 38 20 SSW 14 0 -
21.10.2020 13:00:00 12,5 10,8 18 10 37 20 S 6 0 0,0
21.10.2020 12:00:00 12,8 10,3 16 9 35 19 S 20 0 0,0
21.10.2020 11:00:00 13,1 9,9 17 9 36 19 SSW 20 0 0,0
21.10.2020 10:00:00 12,2 9,6 18 10 38 20 SSW 20 0 0,0
21.10.2020 09:00:00 11,8 9,7 14 7 26 14 SSW 20 0 0,0
21.10.2020 08:00:00 11,9 9,3 12 6 27 15 SSW 20 0 -
21.10.2020 07:00:00 12,0 9,2 13 7 32 17 SSW 20 0 0,0
21.10.2020 06:00:00 12,4 9,9 19 10 46 25 SSW 14 0 0,2
21.10.2020 05:00:00 12,4 9,6 23 12 67 36 SSW 20 0 0,0
21.10.2020 04:00:00 12,5 10,0 27 15 57 31 SSW 20 0 0,0
21.10.2020 03:00:00 12,4 10,4 23 12 62 34 SSW 20 0 1,0
21.10.2020 02:00:00 12,9 11,0 31 17 57 31 SSW 8 0 -
21.10.2020 01:00:00 13,2 10,4 17 9 40 22 S 20 0 0,6
21.10.2020 00:00:00 13,2 10,5 21 11 49 26 S 20 0 1,4
20.10.2020 23:00:00 13,1 10,4 21 12 42 23 S 9 0 2,0
20.10.2020 22:00:00 14,0 9,8 21 12 54 29 S 13 0 0,8
20.10.2020 21:00:00 16,4 6,5 13 7 38 21 S 20 0 0,0
20.10.2020 20:00:00 17,7 5,9 13 7 33 18 S 20 0 -
20.10.2020 19:00:00 18,0 6,2 9 5 39 21 S 20 0 0,0
20.10.2020 18:00:00 18,0 6,8 10 5 33 18 S 20 0 0,0
20.10.2020 17:00:00 18,2 6,7 13 7 34 19 S 20 37 0,0
20.10.2020 16:00:00 17,0 7,8 13 7 43 23 S 20 13 0,0
20.10.2020 15:00:00 14,8 8,3 13 7 31 17 S 20 3 0,2
20.10.2020 14:00:00 12,1 10,0 5 3 21 12 WSW 20 0 -
20.10.2020 13:00:00 11,2 9,4 8 4 20 11 S 5 0 2,8
20.10.2020 12:00:00 10,9 9,7 4 2 13 7 SSW 2,0 0 4,6
20.10.2020 11:00:00 11,0 9,8 5 3 11 6 S 11 0 1,4
20.10.2020 10:00:00 11,0 9,3 4 2 14 7 S 15 0 1,0
20.10.2020 09:00:00 11,1 8,8 6 4 16 9 SSW 6 0 0,4
20.10.2020 08:00:00 11,9 8,5 12 6 36 19 SSW 20 0 -
20.10.2020 07:00:00 13,9 6,7 12 7 40 22 SSW 20 0 0,0
20.10.2020 06:00:00 13,6 6,2 9 5 27 15 SSW 20 0 0,0
20.10.2020 05:00:00 14,0 6,1 11 6 30 16 S 20 0 0,0
20.10.2020 04:00:00 14,3 6,1 12 7 48 26 S 20 0 0,0
20.10.2020 03:00:00 15,1 6,1 22 12 40 21 S 20 0 0,0
20.10.2020 02:00:00 15,3 6,1 16 9 39 21 S 20 0 -
20.10.2020 01:00:00 15,8 5,6 20 11 44 24 SSE 20 0 0,0
20.10.2020 00:00:00 16,2 5,1 16 9 40 21 S 20 0 0,0
19.10.2020 23:00:00 16,6 3,9 16 9 40 22 S 20 0 0,0
19.10.2020 22:00:00 17,2 2,3 13 7 39 21 S 20 0 0,0
19.10.2020 21:00:00 17,9 0,9 10 6 26 14 S 20 0 0,0
19.10.2020 20:00:00 18,0 1,1 9 5 24 13 SSW 20 0 -
19.10.2020 19:00:00 19,0 1,5 9 5 - - S 20 - -
19.10.2020 18:00:00 20,4 1,7 13 7 31 17 S 20 52 0,0
19.10.2020 17:00:00 21,5 1,7 17 9 35 19 SSW 20 60 0,0
19.10.2020 16:00:00 21,2 1,9 19 11 38 21 SSW 20 60 0,0
19.10.2020 15:00:00 21,0 1,7 16 9 33 18 SSW 20 60 0,0
19.10.2020 14:00:00 19,4 1,9 18 10 35 19 SSW 20 50 -
19.10.2020 13:00:00 17,9 2,3 18 10 31 17 SSW 20 24 0,0
19.10.2020 12:00:00 15,9 3,6 14 8 27 15 SSW 20 6 0,0
19.10.2020 11:00:00 13,3 4,6 13 7 29 16 S 20 0 0,0
19.10.2020 10:00:00 3,2 2,3 5 3 7 4 SSW 20 0 0,0
19.10.2020 09:00:00 -1,0 -2,0 2 1 6 4 NE 20 0 0,0
19.10.2020 08:00:00 -1,2 -2,2 3 2 6 3 NNE 20 0 -
19.10.2020 07:00:00 -1,2 -2,5 2 1 5 3 NE 20 0 0,0
19.10.2020 06:00:00 -1,0 -2,2 2 1 5 3 NNE 20 0 0,0
19.10.2020 05:00:00 -0,8 -2,5 1 1 6 3 ENE 20 0 0,0
19.10.2020 04:00:00 -0,4 -2,2 2 1 5 3 SW 20 0 0,0
19.10.2020 03:00:00 0,1 -1,7 2 1 8 4 ENE 20 0 0,0
19.10.2020 02:00:00 0,8 -1,4 3 1 8 5 NE 20 0 -
19.10.2020 01:00:00 1,5 -1,0 4 2 7 4 NNE 20 0 0,0
19.10.2020 00:00:00 2,5 -0,7 3 1 8 4 ENE 20 0 0,0
18.10.2020 23:00:00 3,4 -0,5 4 2 7 4 NE 20 0 0,0
18.10.2020 22:00:00 5,4 0,4 3 2 9 5 NNE 20 0 0,0
18.10.2020 21:00:00 7,5 1,1 3 2 6 4 NE 20 0 0,0
18.10.2020 20:00:00 10,9 1,5 3 1 5 3 NNE 20 0 -
18.10.2020 19:00:00 16,1 1,5 4 2 12 6 SW 20 0 0,0
18.10.2020 18:00:00 18,3 -0,5 5 3 14 8 SW 20 51 0,0
18.10.2020 17:00:00 19,2 -0,7 5 3 16 8 SSW 20 52 0,0
18.10.2020 16:00:00 19,4 -0,7 5 3 16 9 S 20 60 0,0
18.10.2020 15:00:00 19,7 -1,4 4 2 14 8 SSE 20 60 0,0
18.10.2020 14:00:00 18,7 -1,2 5 3 14 8 S 20 41 -
18.10.2020 13:00:00 16,9 0,9 4 2 9 5 S 20 16 0,0
18.10.2020 12:00:00 12,3 1,1 3 1 6 3 N 20 0 0,0
18.10.2020 11:00:00 6,8 1,9 1 1 6 4 E 20 0 0,0
18.10.2020 10:00:00 1,5 0,0 4 2 6 4 NNE 20 0 0,0
18.10.2020 09:00:00 -2,3 -3,3 2 1 9 5 N 20 0 0,0
18.10.2020 08:00:00 -2,9 -4,2 4 2 7 4 NNE 20 0 -
18.10.2020 07:00:00 -2,4 -3,6 4 2 8 5 NE 20 0 0,0
18.10.2020 06:00:00 -2,1 -3,3 3 2 8 4 NNE 20 0 0,0
18.10.2020 05:00:00 -1,9 -3,3 5 3 9 5 NNE 20 0 0,0
18.10.2020 04:00:00 -1,2 -2,7 3 2 9 5 NE 20 0 0,0
18.10.2020 03:00:00 -1,0 -2,5 4 2 8 4 NE 20 0 0,0
18.10.2020 02:00:00 -0,5 -2,2 5 3 8 4 NE 20 0 -
18.10.2020 01:00:00 0,3 -1,7 5 3 8 4 N 20 0 0,0
18.10.2020 00:00:00 1,1 -1,7 3 2 7 4 NE 20 0 0,0
17.10.2020 23:00:00 2,3 -1,0 3 1 8 5 NNE 20 0 0,0
17.10.2020 22:00:00 4,1 -0,3 4 2 6 3 NE 20 0 0,0
17.10.2020 21:00:00 6,4 0,4 3 1 5 3 NE 20 0 0,0
17.10.2020 20:00:00 10,3 0,6 1 1 7 4 SSE 20 0 -
17.10.2020 19:00:00 13,9 1,3 3 2 14 7 WSW 20 45 0,0
17.10.2020 18:00:00 16,4 0,0 3 1 19 10 SW 20 60 0,0
17.10.2020 17:00:00 16,3 -0,5 6 4 17 9 WSW 20 60 0,0
17.10.2020 16:00:00 16,7 -0,5 4 2 19 11 WSW 20 60 0,0
17.10.2020 15:00:00 16,0 -0,3 6 4 23 13 SSW 20 60 0,0
17.10.2020 14:00:00 15,0 0,4 9 5 20 11 SSW 20 43 -
17.10.2020 13:00:00 12,9 0,0 8 4 21 12 S 20 13 0,0
17.10.2020 12:00:00 10,3 0,4 6 4 15 8 S 20 0 0,0
17.10.2020 11:00:00 4,4 1,1 1 1 5 3 E 20 0 0,0
17.10.2020 10:00:00 -0,2 -1,4 4 2 7 4 NNE 20 0 0,0
17.10.2020 09:00:00 - - - - - - - - - -
17.10.2020 08:00:00 - - - - - - - - - -
17.10.2020 07:00:00 - - - - - - - - - -
17.10.2020 06:00:00 - - - - - - - - - -
17.10.2020 05:00:00 -3,0 -4,2 2 1 8 5 ENE 20 0 0,0
17.10.2020 04:00:00 -2,7 -4,2 4 2 7 4 NNE 20 0 0,0
17.10.2020 03:00:00 -2,0 -3,3 3 2 6 4 N 20 0 0,0
17.10.2020 02:00:00 -1,7 -3,6 4 2 6 4 NE 20 0 -
17.10.2020 01:00:00 -0,9 -2,7 3 2 9 5 NE 20 0 0,0

tt = temperature
td = dewpoint
ff = wind speed
fx = gusts
dd = wind direction
vv = visibility
sd = sunshine duration
rr = precipitation

Next stations